createdAt,value
2018-09-13T00:01:05.684Z,22.328186
2018-09-13T00:02:21.718Z,22.277832
2018-09-13T00:03:56.599Z,22.146912
2018-09-13T00:05:12.576Z,22.056274
2018-09-13T00:06:46.532Z,22.076416
2018-09-13T00:08:02.431Z,22.076416
2018-09-13T00:09:37.375Z,21.985779
2018-09-13T00:10:53.459Z,22.00592
2018-09-13T00:12:09.592Z,22.066345
2018-09-13T00:13:25.561Z,22.066345
2018-09-13T00:14:41.550Z,22.096558
2018-09-13T00:15:57.521Z,22.036133
2018-09-13T00:17:31.361Z,22.056274
2018-09-13T00:18:47.336Z,22.066345
2018-09-13T00:20:03.239Z,22.056274
2018-09-13T00:21:37.392Z,21.99585
2018-09-13T00:22:53.319Z,21.804504
2018-09-13T00:24:28.502Z,21.875
2018-09-13T00:25:44.568Z,21.875
2018-09-13T00:27:00.624Z,21.804504
2018-09-13T00:28:16.548Z,21.653442
2018-09-13T00:29:32.558Z,21.512451
2018-09-13T00:30:48.542Z,21.482239
2018-09-13T00:32:04.499Z,21.331177
2018-09-13T00:33:20.423Z,21.441956
2018-09-13T00:34:36.368Z,21.441956
2018-09-13T00:35:52.293Z,21.401672
2018-09-13T00:37:08.501Z,21.321106
2018-09-13T00:38:24.401Z,21.230469
2018-09-13T00:39:40.380Z,21.129761
2018-09-13T00:40:56.400Z,21.008911
2018-09-13T00:42:12.344Z,21.039124
2018-09-13T00:43:28.368Z,21.039124
2018-09-13T00:44:44.390Z,21.039124
2018-09-13T00:46:00.315Z,21.129761
2018-09-13T00:47:16.544Z,21.139832
2018-09-13T00:48:32.508Z,21.230469
2018-09-13T00:49:48.499Z,21.008911
2018-09-13T00:51:23.398Z,20.99884
2018-09-13T00:52:39.478Z,21.029053
2018-09-13T00:53:55.404Z,21.109619
2018-09-13T00:55:29.386Z,21.139832
2018-09-13T00:56:45.349Z,21.25061
2018-09-13T00:58:01.348Z,21.25061
2018-09-13T00:59:36.331Z,21.300964
2018-09-13T01:00:52.433Z,21.260681
2018-09-13T01:02:08.407Z,21.290894
2018-09-13T01:03:24.401Z,21.280823
2018-09-13T01:04:40.353Z,21.230469
2018-09-13T01:05:56.261Z,21.149902
2018-09-13T01:07:12.303Z,21.139832
2018-09-13T01:08:28.184Z,21.200256
2018-09-13T01:10:03.274Z,21.25061
2018-09-13T01:11:19.237Z,21.230469
2018-09-13T01:12:35.246Z,21.149902
2018-09-13T01:14:10.101Z,21.331177
2018-09-13T01:15:27.019Z,21.431885
2018-09-13T01:17:00.814Z,21.37146
2018-09-13T01:18:16.865Z,21.230469
2018-09-13T01:19:32.773Z,21.321106
2018-09-13T01:20:48.810Z,21.351318
2018-09-13T01:22:22.634Z,21.37146
2018-09-13T01:23:38.714Z,21.37146
2018-09-13T01:24:54.821Z,21.351318
2018-09-13T01:26:10.735Z,21.321106
2018-09-13T01:27:26.806Z,21.321106
2018-09-13T01:28:42.770Z,21.230469
2018-09-13T01:29:58.702Z,21.331177
2018-09-13T01:31:14.779Z,21.290894
2018-09-13T01:32:30.827Z,21.190186
2018-09-13T01:33:46.787Z,21.099548
2018-09-13T01:35:02.699Z,21.170044
2018-09-13T01:36:18.610Z,21.170044
2018-09-13T01:37:34.647Z,21.321106
2018-09-13T01:38:50.586Z,21.300964
2018-09-13T01:40:06.641Z,21.321106
2018-09-13T01:41:22.665Z,21.331177
2018-09-13T01:42:38.597Z,21.381531
2018-09-13T01:43:54.689Z,21.401672
2018-09-13T01:45:10.713Z,21.441956
2018-09-13T01:46:26.684Z,21.411743
2018-09-13T01:47:42.739Z,21.321106
2018-09-13T01:48:58.747Z,21.260681
2018-09-13T01:50:14.656Z,21.37146
2018-09-13T01:51:49.682Z,21.37146
2018-09-13T01:53:23.548Z,21.441956
2018-09-13T01:54:39.517Z,21.50238
2018-09-13T01:55:55.617Z,21.411743
2018-09-13T01:57:11.593Z,21.401672
2018-09-13T01:58:27.542Z,21.37146
2018-09-13T01:59:43.502Z,21.290894
2018-09-13T02:00:59.420Z,21.300964
2018-09-13T02:02:15.446Z,21.25061
2018-09-13T02:03:31.427Z,21.321106
2018-09-13T02:04:47.511Z,21.37146
2018-09-13T02:06:03.584Z,21.401672
2018-09-13T02:07:19.515Z,21.37146
2018-09-13T02:08:35.540Z,21.25061
2018-09-13T02:09:51.497Z,21.129761
2018-09-13T02:11:07.427Z,21.079407
2018-09-13T02:12:23.510Z,20.99884
2018-09-13T02:13:39.456Z,20.978699
2018-09-13T02:14:55.467Z,21.049194
2018-09-13T02:16:11.546Z,21.049194
2018-09-13T02:17:27.605Z,21.139832
2018-09-13T02:18:43.570Z,21.099548
2018-09-13T02:19:59.698Z,21.039124
2018-09-13T02:21:15.651Z,20.857849
2018-09-13T02:22:31.574Z,20.99884
2018-09-13T02:23:47.527Z,21.069336
2018-09-13T02:25:03.496Z,21.109619
2018-09-13T02:26:19.515Z,21.008911
2018-09-13T02:27:35.539Z,20.918274
2018-09-13T02:28:51.453Z,20.928345
2018-09-13T02:30:07.552Z,20.958557
2018-09-13T02:31:23.661Z,21.079407
2018-09-13T02:32:39.608Z,20.99884
2018-09-13T02:33:55.506Z,20.656433
2018-09-13T02:35:11.484Z,20.596008
2018-09-13T02:36:27.568Z,20.666504
2018-09-13T02:37:43.628Z,20.737
2018-09-13T02:38:59.732Z,20.696716
2018-09-13T02:40:15.939Z,20.726929
2018-09-13T02:41:31.871Z,20.737
2018-09-13T02:42:47.836Z,20.726929
2018-09-13T02:44:21.702Z,20.777283
2018-09-13T02:45:37.646Z,20.656433
2018-09-13T02:46:53.659Z,20.575867
2018-09-13T02:48:09.615Z,20.706787
2018-09-13T02:49:25.689Z,20.656433
2018-09-13T02:50:59.545Z,20.656433
2018-09-13T02:52:15.463Z,20.666504
2018-09-13T02:53:31.596Z,20.676575
2018-09-13T02:54:47.560Z,20.706787
2018-09-13T02:56:03.474Z,20.676575
2018-09-13T02:57:37.300Z,20.696716
2018-09-13T02:58:53.213Z,20.726929
2018-09-13T03:00:09.148Z,20.737
2018-09-13T03:01:25.072Z,20.74707
2018-09-13T03:02:41.094Z,20.888062
2018-09-13T03:03:57.076Z,20.857849
2018-09-13T03:05:13.144Z,20.948486
2018-09-13T03:06:29.208Z,20.928345
2018-09-13T03:07:46.184Z,20.928345
2018-09-13T03:09:02.259Z,20.928345
2018-09-13T03:10:18.316Z,20.888062
2018-09-13T03:11:34.251Z,20.847778
2018-09-13T03:12:50.224Z,20.797424
2018-09-13T03:14:06.145Z,20.797424
2018-09-13T03:15:40.988Z,20.847778
2018-09-13T03:17:14.851Z,20.827637
2018-09-13T03:18:30.778Z,20.676575
2018-09-13T03:19:46.767Z,20.666504
2018-09-13T03:21:21.594Z,20.676575
2018-09-13T03:22:37.631Z,20.706787
2018-09-13T03:23:53.664Z,20.817566
2018-09-13T03:26:51.001Z,20.726929
2018-09-13T03:28:24.920Z,20.777283
2018-09-13T03:29:40.882Z,20.777283
2018-09-13T03:31:14.748Z,20.696716
2018-09-13T03:33:55.070Z,20.666504
2018-09-13T03:35:29.888Z,20.575867
2018-09-13T03:36:45.956Z,20.626221
2018-09-13T03:38:02.646Z,20.585938
2018-09-13T03:39:18.633Z,20.656433
2018-09-13T03:40:34.771Z,20.676575
2018-09-13T03:41:50.754Z,20.676575
2018-09-13T03:43:06.844Z,20.555725
2018-09-13T03:55:16.212Z,20.575867
2018-09-13T03:56:32.194Z,20.525513
2018-09-13T03:57:48.274Z,20.404663
2018-09-13T03:59:04.385Z,20.394592
2018-09-13T04:00:39.240Z,20.424805
2018-09-13T04:02:13.078Z,20.404663
2018-09-13T04:03:29.263Z,20.515442
2018-09-13T04:04:45.229Z,20.36438
2018-09-13T04:06:01.199Z,20.36438
2018-09-13T04:07:17.399Z,20.404663
2018-09-13T04:08:32.466Z,20.485229
2018-09-13T04:10:06.408Z,20.4953
2018-09-13T04:11:41.327Z,20.404663
2018-09-13T04:12:57.306Z,20.24353
2018-09-13T04:14:13.375Z,20.263672
2018-09-13T04:15:29.359Z,20.303955
2018-09-13T04:16:45.347Z,20.444946
2018-09-13T04:18:01.282Z,20.293884
2018-09-13T04:19:17.226Z,20.303955
2018-09-13T04:20:33.242Z,20.293884
2018-09-13T04:21:49.217Z,20.374451
2018-09-13T04:23:05.203Z,20.394592
2018-09-13T04:24:21.370Z,20.394592
2018-09-13T04:25:37.333Z,20.444946
2018-09-13T04:26:53.317Z,20.344238
2018-09-13T04:28:27.174Z,20.24353
2018-09-13T04:29:43.211Z,20.303955
2018-09-13T04:30:59.222Z,20.324097
2018-09-13T04:32:15.198Z,20.324097
2018-09-13T04:33:31.221Z,20.374451
2018-09-13T04:34:47.299Z,20.334167
2018-09-13T04:36:21.150Z,20.122681
2018-09-13T04:37:37.092Z,20.11261
2018-09-13T04:39:11.068Z,20.072327
2018-09-13T04:40:45.105Z,20.223389
2018-09-13T04:42:01.075Z,20.223389
2018-09-13T04:43:17.136Z,20.324097
2018-09-13T04:44:51.013Z,20.324097
2018-09-13T04:46:07.058Z,20.303955
2018-09-13T04:47:41.980Z,20.213318
2018-09-13T04:48:58.042Z,20.24353
2018-09-13T04:50:13.934Z,20.173035
2018-09-13T04:51:29.888Z,20.102539
2018-09-13T04:52:45.903Z,20.173035
2018-09-13T04:54:01.872Z,20.213318
2018-09-13T04:55:17.862Z,20.183105
2018-09-13T04:56:33.973Z,20.142822
2018-09-13T04:58:07.881Z,20.082397
2018-09-13T04:59:24.100Z,20.082397
2018-09-13T05:00:58.971Z,20.122681
2018-09-13T05:02:32.879Z,20.183105
2018-09-13T05:05:29.982Z,20.072327
2018-09-13T05:07:03.861Z,20.173035
2018-09-13T05:08:38.903Z,20.183105
2018-09-13T05:09:55.095Z,20.152893
2018-09-13T05:11:31.758Z,20.122681
2018-09-13T05:13:25.117Z,20.021973
2018-09-13T05:16:22.070Z,19.921265
2018-09-13T05:44:36.342Z,20.24353
2018-09-13T05:46:28.016Z,20.273743
2018-09-13T05:48:19.775Z,20.293884
2018-09-13T05:49:35.866Z,20.173035
2018-09-13T05:51:28.611Z,20.082397
2018-09-13T05:53:02.465Z,20.183105
2018-09-13T05:54:36.310Z,20.24353
2018-09-13T05:55:52.423Z,20.183105
2018-09-13T05:57:08.475Z,20.183105
2018-09-13T05:58:43.339Z,20.152893
2018-09-13T05:59:59.435Z,20.223389
2018-09-13T06:01:33.246Z,20.223389
2018-09-13T06:03:07.156Z,20.183105
2018-09-13T06:04:23.204Z,20.102539
2018-09-13T06:05:58.034Z,20.042114
2018-09-13T06:07:14.033Z,20.082397
2018-09-13T06:08:30.138Z,20.042114
2018-09-13T06:10:05.107Z,20.072327
2018-09-13T06:11:21.085Z,20.082397
2018-09-13T06:12:55.926Z,20.082397
2018-09-13T06:14:11.853Z,20.173035
2018-09-13T06:15:27.946Z,20.142822
2018-09-13T06:17:01.857Z,20.193176
2018-09-13T06:18:35.725Z,20.102539
2018-09-13T06:20:09.650Z,20.032043
2018-09-13T06:21:25.647Z,20.173035
2018-09-13T06:22:41.716Z,20.152893
2018-09-13T06:23:57.666Z,20.193176
2018-09-13T06:25:13.758Z,20.223389
2018-09-13T06:26:29.735Z,20.24353
2018-09-13T06:28:03.583Z,20.374451
2018-09-13T06:29:19.636Z,20.394592
2018-09-13T06:30:36.535Z,20.475159
2018-09-13T06:31:52.533Z,20.475159
2018-09-13T06:33:08.523Z,20.424805
2018-09-13T06:34:24.486Z,20.545654
2018-09-13T06:35:59.359Z,20.515442
2018-09-13T06:37:33.330Z,20.575867
2018-09-13T06:39:07.280Z,20.525513
2018-09-13T06:40:23.207Z,20.4953
2018-09-13T06:41:58.284Z,20.4953
2018-09-13T06:43:14.392Z,20.636292
2018-09-13T06:44:48.310Z,20.596008
2018-09-13T06:46:04.294Z,20.696716
2018-09-13T06:47:20.419Z,20.696716
2018-09-13T06:48:36.396Z,20.656433
2018-09-13T06:50:11.231Z,20.676575
2018-09-13T06:51:45.215Z,20.666504
2018-09-13T06:53:01.167Z,20.676575
2018-09-13T06:54:35.007Z,20.656433
2018-09-13T06:55:51.213Z,20.666504
2018-09-13T06:57:07.302Z,20.696716
2018-09-13T06:58:23.304Z,20.737
2018-09-13T06:59:57.143Z,20.767212
2018-09-13T07:01:50.122Z,20.767212
2018-09-13T07:03:25.082Z,20.918274
2018-09-13T07:04:41.019Z,20.918274
2018-09-13T07:08:53.751Z,21.039124
2018-09-13T07:10:09.882Z,20.99884
2018-09-13T07:37:02.967Z,21.37146
2018-09-13T07:38:19.045Z,21.321106
2018-09-13T07:39:52.987Z,21.37146
2018-09-13T07:41:08.921Z,21.411743
2018-09-13T07:42:24.920Z,21.441956
2018-09-13T07:43:58.774Z,21.542664
2018-09-13T07:45:14.757Z,21.633301
2018-09-13T07:46:30.786Z,21.663513
2018-09-13T07:48:05.690Z,21.774292
2018-09-13T07:49:21.713Z,21.915283
2018-09-13T07:50:55.489Z,21.814575
2018-09-13T07:52:11.622Z,21.784363
2018-09-13T07:53:27.822Z,21.814575
2018-09-13T07:54:43.769Z,21.844788
2018-09-13T07:55:59.747Z,21.875
2018-09-13T07:57:15.648Z,21.875
2018-09-13T07:58:31.614Z,21.844788
2018-09-13T08:00:05.449Z,21.723938
2018-09-13T08:01:21.362Z,21.74408
2018-09-13T08:02:37.421Z,21.784363
2018-09-13T08:03:53.464Z,21.844788
2018-09-13T08:05:09.419Z,21.905212
2018-09-13T08:06:25.436Z,21.985779
2018-09-13T08:07:41.496Z,22.066345
2018-09-13T08:08:57.736Z,22.056274
2018-09-13T08:10:13.707Z,22.217407
2018-09-13T08:11:29.693Z,22.368469
2018-09-13T08:12:45.703Z,22.459106
2018-09-13T08:14:01.888Z,22.459106
2018-09-13T08:15:35.734Z,22.549744
2018-09-13T08:16:52.042Z,22.519531
2018-09-13T08:18:08.034Z,22.529602
2018-09-13T08:19:41.936Z,22.610168
2018-09-13T08:20:57.991Z,22.50946
2018-09-13T08:22:14.053Z,22.549744
2018-09-13T08:23:30.005Z,22.700806
2018-09-13T08:24:46.133Z,22.680664
2018-09-13T08:26:02.078Z,22.710876
2018-09-13T08:27:18.131Z,22.861938
2018-09-13T08:28:34.191Z,22.922363
2018-09-13T08:29:50.145Z,22.992859
2018-09-13T08:31:06.180Z,23.043213
2018-09-13T08:32:22.238Z,23.164062
2018-09-13T08:33:57.116Z,23.073425
2018-09-13T08:35:13.167Z,22.982788
2018-09-13T08:36:47.024Z,22.962646
2018-09-13T08:38:02.984Z,22.932434
2018-09-13T08:39:19.067Z,22.861938
2018-09-13T08:40:35.053Z,22.861938
2018-09-13T08:41:51.014Z,22.771301
2018-09-13T08:43:07.077Z,22.710876
2018-09-13T08:44:23.017Z,22.771301
2018-09-13T08:45:39.056Z,22.811584
2018-09-13T08:46:55.230Z,22.650452
2018-09-13T08:48:11.322Z,22.408752
2018-09-13T08:49:27.286Z,22.469177
2018-09-13T08:51:01.181Z,22.308044
2018-09-13T08:52:17.152Z,22.358398
2018-09-13T08:53:52.120Z,22.428894
2018-09-13T08:55:08.144Z,22.579956
2018-09-13T08:56:24.065Z,22.741089
2018-09-13T08:57:40.104Z,22.529602
2018-09-13T08:58:56.245Z,22.559814
2018-09-13T09:00:12.213Z,22.700806
2018-09-13T09:01:28.263Z,22.63031
2018-09-13T09:02:44.256Z,22.438965
2018-09-13T09:04:00.189Z,22.207336
2018-09-13T09:05:34.126Z,22.338257
2018-09-13T09:06:50.123Z,22.50946
2018-09-13T09:08:06.157Z,22.549744
2018-09-13T09:09:22.103Z,22.590027
2018-09-13T09:10:38.056Z,22.710876
2018-09-13T09:11:54.198Z,22.76123
2018-09-13T09:13:10.113Z,22.670593
2018-09-13T09:14:26.082Z,22.670593
2018-09-13T09:15:42.276Z,22.469177
2018-09-13T09:16:58.245Z,22.549744
2018-09-13T09:18:14.418Z,22.710876
2018-09-13T09:19:30.334Z,22.741089
2018-09-13T09:20:46.308Z,22.811584
2018-09-13T09:22:02.422Z,23.043213
2018-09-13T09:23:18.392Z,23.043213
2018-09-13T09:24:34.393Z,23.043213
2018-09-13T09:26:08.493Z,22.781372
2018-09-13T09:27:24.465Z,22.781372
2018-09-13T09:28:40.528Z,22.962646
2018-09-13T09:30:14.409Z,23.063354
2018-09-13T09:31:30.472Z,23.315125
2018-09-13T09:33:04.352Z,23.315125
2018-09-13T09:34:20.356Z,23.355408
2018-09-13T09:35:55.270Z,23.486328
2018-09-13T09:37:11.360Z,23.466187
2018-09-13T09:38:27.308Z,23.546753
2018-09-13T09:39:43.396Z,23.617249
2018-09-13T09:40:59.421Z,23.50647
2018-09-13T09:42:15.552Z,23.617249
2018-09-13T09:43:49.458Z,23.50647
2018-09-13T09:45:05.544Z,23.707886
2018-09-13T09:46:39.519Z,23.879089
2018-09-13T09:48:13.612Z,23.75824
2018-09-13T09:49:29.455Z,23.848877
2018-09-13T09:50:45.530Z,23.808594
2018-09-13T09:52:01.786Z,23.858948
2018-09-13T09:53:17.849Z,23.949585
2018-09-13T09:54:34.017Z,24.030151
2018-09-13T09:55:49.950Z,23.707886
2018-09-13T09:57:06.047Z,23.697815
2018-09-13T09:58:39.982Z,23.858948
2018-09-13T09:59:55.934Z,23.999939
2018-09-13T10:01:12.082Z,23.989868
2018-09-13T10:02:28.078Z,23.838806
2018-09-13T10:03:44.135Z,23.63739
2018-09-13T10:05:00.233Z,23.476257
2018-09-13T10:06:16.354Z,23.476257
2018-09-13T10:07:32.498Z,23.728027
2018-09-13T10:08:48.519Z,23.818665
2018-09-13T10:10:04.478Z,23.879089
2018-09-13T10:11:20.418Z,23.768311
2018-09-13T10:12:36.365Z,23.707886
2018-09-13T10:13:52.345Z,23.808594
2018-09-13T10:15:08.484Z,23.989868
2018-09-13T10:16:24.477Z,23.949585
2018-09-13T10:17:40.430Z,23.939514
2018-09-13T10:18:56.479Z,24.01001
2018-09-13T10:20:12.550Z,23.919373
2018-09-13T10:21:28.488Z,23.848877
2018-09-13T10:22:44.624Z,23.858948
2018-09-13T10:24:00.639Z,23.75824
2018-09-13T10:25:16.612Z,23.707886
2018-09-13T10:26:32.590Z,23.808594
2018-09-13T10:28:06.462Z,23.949585
2018-09-13T10:29:23.665Z,23.909302
2018-09-13T10:30:39.623Z,23.808594
2018-09-13T10:31:55.578Z,23.576965
2018-09-13T10:33:11.546Z,23.808594
2018-09-13T10:34:27.594Z,24.090576
2018-09-13T10:36:01.440Z,23.818665
2018-09-13T10:37:17.497Z,23.909302
2018-09-13T10:38:33.543Z,23.989868
2018-09-13T10:39:49.661Z,24.251709
2018-09-13T10:41:05.738Z,24.181213
2018-09-13T10:42:21.711Z,24.090576
2018-09-13T10:43:37.624Z,24.221497
2018-09-13T10:44:53.657Z,24.181213
2018-09-13T10:46:09.652Z,24.342346
2018-09-13T10:47:25.750Z,24.533691
2018-09-13T10:48:59.813Z,24.76532
2018-09-13T10:50:15.802Z,24.714966
2018-09-13T10:51:31.829Z,24.805603
2018-09-13T10:53:05.838Z,24.735107
2018-09-13T10:54:21.916Z,24.594116
2018-09-13T10:55:38.113Z,24.584045
2018-09-13T10:57:11.960Z,24.553833
2018-09-13T10:58:27.955Z,24.785461
2018-09-13T10:59:44.074Z,24.966736
2018-09-13T11:01:00.180Z,25.117798
2018-09-13T11:02:16.145Z,25.289001
2018-09-13T11:03:50.011Z,25.178223
2018-09-13T11:05:06.025Z,25.007019
2018-09-13T11:06:40.051Z,24.926453
2018-09-13T11:07:56.018Z,25.027161
2018-09-13T11:09:12.051Z,25.037231
2018-09-13T11:10:46.033Z,25.107727
2018-09-13T11:12:19.895Z,24.986877
2018-09-13T11:13:35.892Z,25.14801
2018-09-13T11:14:51.842Z,25.178223
2018-09-13T11:16:07.845Z,24.996948
2018-09-13T11:17:23.859Z,25.037231
2018-09-13T11:18:39.917Z,25.178223
2018-09-13T11:19:56.031Z,25.027161
2018-09-13T11:21:12.017Z,25.117798
2018-09-13T11:22:28.277Z,25.057373
2018-09-13T11:23:44.210Z,24.996948
2018-09-13T11:25:00.177Z,25.14801
2018-09-13T11:26:16.238Z,25.238647
2018-09-13T11:27:32.375Z,25.248718
2018-09-13T11:28:48.484Z,25.299072
2018-09-13T11:30:04.577Z,25.39978
2018-09-13T11:31:20.573Z,25.510559
2018-09-13T11:32:37.629Z,25.440063
2018-09-13T11:33:53.630Z,25.52063
2018-09-13T11:35:09.808Z,25.711975
2018-09-13T11:36:25.751Z,25.732117
2018-09-13T11:38:00.640Z,25.701904
2018-09-13T11:39:16.742Z,25.591125
2018-09-13T11:40:33.044Z,25.429993
2018-09-13T11:41:48.873Z,25.339355
2018-09-13T11:43:04.857Z,25.258789
2018-09-13T11:44:21.035Z,25.480347
2018-09-13T11:45:36.994Z,25.550842
2018-09-13T11:46:52.997Z,25.560913
2018-09-13T11:48:09.098Z,25.510559
2018-09-13T11:49:25.037Z,25.510559
2018-09-13T11:50:41.136Z,25.661621
2018-09-13T11:51:57.165Z,25.611267
2018-09-13T11:53:13.321Z,25.7724
2018-09-13T11:54:29.451Z,26.14502
2018-09-13T11:55:45.509Z,26.185303
2018-09-13T11:57:01.461Z,26.104736
2018-09-13T11:58:17.525Z,26.15509
2018-09-13T11:59:33.473Z,26.185303
2018-09-13T12:00:49.483Z,26.104736
2018-09-13T12:02:05.730Z,26.084595
2018-09-13T12:03:21.725Z,26.255798
2018-09-13T12:04:37.739Z,26.517639
2018-09-13T12:05:53.791Z,26.487427
2018-09-13T12:07:09.765Z,26.356506
2018-09-13T12:08:25.772Z,26.084595
2018-09-13T12:09:41.900Z,25.993958
2018-09-13T12:10:57.875Z,25.863037
2018-09-13T12:12:13.906Z,25.963745
2018-09-13T12:13:29.976Z,26.255798
2018-09-13T12:14:46.030Z,26.447144
2018-09-13T12:16:19.953Z,26.608276
2018-09-13T12:17:35.996Z,26.759338
2018-09-13T12:18:52.047Z,26.517639
2018-09-13T12:20:08.246Z,26.52771
2018-09-13T12:21:24.226Z,26.336365
2018-09-13T12:22:40.270Z,25.933533
2018-09-13T12:23:56.296Z,25.933533
2018-09-13T12:25:12.255Z,26.185303
2018-09-13T12:26:28.250Z,26.477356
2018-09-13T12:27:44.232Z,26.517639
2018-09-13T12:29:00.313Z,26.296082
2018-09-13T12:30:16.439Z,26.15509
2018-09-13T12:31:32.451Z,26.225586
2018-09-13T12:32:48.395Z,26.15509
2018-09-13T12:34:23.395Z,25.852966
2018-09-13T12:35:39.525Z,25.742188
2018-09-13T12:36:55.462Z,25.701904
2018-09-13T12:38:29.391Z,25.742188
2018-09-13T12:39:45.516Z,25.802612
2018-09-13T12:41:01.744Z,26.034241
2018-09-13T12:42:17.574Z,26.336365
2018-09-13T12:43:51.490Z,26.477356
2018-09-13T12:45:07.596Z,26.547852
2018-09-13T12:46:23.650Z,26.366577
2018-09-13T12:47:39.827Z,26.356506
2018-09-13T12:49:13.565Z,26.608276
2018-09-13T12:50:29.626Z,26.759338
2018-09-13T12:51:45.747Z,26.65863
2018-09-13T12:53:01.888Z,26.65863
2018-09-13T12:54:17.979Z,26.507568
2018-09-13T12:55:33.932Z,26.286011
2018-09-13T12:57:08.992Z,25.983887
2018-09-13T12:58:24.978Z,25.89325
2018-09-13T12:59:41.215Z,25.701904
2018-09-13T13:01:16.140Z,25.359497
2018-09-13T13:02:50.061Z,25.711975
2018-09-13T13:04:06.118Z,25.852966
2018-09-13T13:05:22.250Z,25.742188
2018-09-13T13:06:38.284Z,25.832825
2018-09-13T13:07:54.360Z,25.953674
2018-09-13T13:09:10.353Z,26.074524
2018-09-13T13:10:26.542Z,26.457214
2018-09-13T13:11:42.596Z,26.517639
2018-09-13T13:12:58.509Z,26.14502
2018-09-13T13:14:14.773Z,25.963745
2018-09-13T13:15:30.896Z,26.014099
2018-09-13T13:17:04.842Z,26.084595
2018-09-13T13:18:22.104Z,26.215515
2018-09-13T13:19:38.078Z,25.963745
2018-09-13T13:20:54.120Z,25.812683
2018-09-13T13:22:10.152Z,25.591125
2018-09-13T13:23:26.125Z,25.681763
2018-09-13T13:24:42.232Z,25.460205
2018-09-13T13:25:58.350Z,25.339355
2018-09-13T13:27:14.519Z,25.329285
2018-09-13T13:28:31.375Z,25.631409
2018-09-13T13:29:47.458Z,25.762329
2018-09-13T13:31:03.485Z,25.953674
2018-09-13T13:32:19.602Z,26.114807
2018-09-13T13:33:35.688Z,26.547852
2018-09-13T13:34:51.646Z,26.890259
2018-09-13T13:36:07.706Z,27.051392
2018-09-13T13:37:23.763Z,27.252808
2018-09-13T13:38:58.738Z,27.262878
2018-09-13T13:40:14.885Z,27.192383
2018-09-13T13:41:30.926Z,27.333374
2018-09-13T13:42:47.019Z,27.303162
2018-09-13T13:44:20.917Z,27.111816
2018-09-13T13:45:36.946Z,27.03125
2018-09-13T13:46:52.933Z,27.262878
2018-09-13T13:48:09.083Z,27.333374
2018-09-13T13:49:25.128Z,27.101746
2018-09-13T13:50:40.991Z,27.252808
2018-09-13T13:52:14.969Z,27.192383
2018-09-13T13:53:31.172Z,27.40387
2018-09-13T13:54:47.192Z,27.554932
2018-09-13T13:56:03.413Z,27.071533
2018-09-13T13:57:19.417Z,26.930542
2018-09-13T13:58:53.314Z,27.111816
2018-09-13T14:00:09.333Z,27.575073
2018-09-13T14:01:25.789Z,27.967834
2018-09-13T14:02:41.832Z,28.229675
2018-09-13T14:03:58.056Z,28.350525
2018-09-13T14:05:14.175Z,28.149109
2018-09-13T14:06:30.286Z,28.350525
2018-09-13T14:07:46.633Z,28.451233
2018-09-13T14:09:02.769Z,28.753357
2018-09-13T14:10:18.809Z,29.115906
2018-09-13T14:11:35.016Z,29.458313
2018-09-13T14:13:09.105Z,29.689941
2018-09-13T14:14:25.177Z,30.404968
2018-09-13T14:16:00.219Z,30.727234
2018-09-13T14:17:34.104Z,31.321411
2018-09-13T14:18:50.408Z,32.660828
2018-09-13T14:20:06.537Z,34.372864
2018-09-13T14:21:22.554Z,35.611572
2018-09-13T14:22:38.678Z,36.729431
2018-09-13T14:23:54.708Z,37.112122
2018-09-13T14:25:28.916Z,37.947998
2018-09-13T14:27:02.923Z,36.548157
2018-09-13T14:28:18.920Z,36.820068
2018-09-13T14:29:53.138Z,36.135254
2018-09-13T14:31:26.933Z,36.21582
2018-09-13T14:32:43.105Z,36.155396
2018-09-13T14:33:59.434Z,35.984192
2018-09-13T14:35:15.530Z,36.286316
2018-09-13T14:36:31.610Z,36.387024
2018-09-13T14:37:47.712Z,37.2229
2018-09-13T14:39:04.022Z,36.749573
2018-09-13T14:40:38.208Z,34.805908
2018-09-13T14:41:54.294Z,33.44635
2018-09-13T14:43:10.395Z,29.891357
2018-09-13T14:44:26.371Z,28.753357
2018-09-13T14:45:42.585Z,28.03833
2018-09-13T14:46:58.548Z,27.605286
2018-09-13T14:48:14.549Z,27.383728
2018-09-13T14:49:30.667Z,27.011108
2018-09-13T14:50:46.629Z,29.528809
2018-09-13T14:52:21.896Z,34.352722
2018-09-13T14:53:37.848Z,35.943909
2018-09-13T14:54:53.949Z,36.286316
2018-09-13T14:56:27.855Z,37.706299
2018-09-13T14:57:44.000Z,38.280334
2018-09-13T14:59:17.851Z,37.756653
2018-09-13T15:00:33.897Z,37.907715
2018-09-13T15:01:50.087Z,37.625732
2018-09-13T15:03:06.052Z,38.088989
2018-09-13T15:04:22.163Z,38.088989
2018-09-13T15:05:38.227Z,37.84729
2018-09-13T15:08:36.052Z,37.877502
2018-09-13T15:10:09.944Z,36.598511
2018-09-13T15:11:45.058Z,32.902527
2018-09-13T15:13:18.958Z,30.263977
2018-09-13T15:14:53.880Z,29.589233
2018-09-13T15:16:09.930Z,30.42511
2018-09-13T15:17:44.910Z,30.757446
2018-09-13T15:19:18.851Z,30.012207
2018-09-13T15:20:53.899Z,30.143127
2018-09-13T15:22:11.395Z,32.81189
2018-09-13T15:23:29.621Z,34.977112
2018-09-13T15:25:03.549Z,35.96405
2018-09-13T15:37:11.247Z,26.860046
2018-09-13T15:38:27.400Z,26.819763
2018-09-13T15:39:43.591Z,26.487427
2018-09-13T15:40:59.733Z,26.326294
2018-09-13T15:42:33.711Z,26.134949
2018-09-13T15:43:49.766Z,26.074524
2018-09-13T15:45:24.789Z,25.913391
2018-09-13T15:46:58.811Z,26.084595
2018-09-13T15:48:15.197Z,25.983887
2018-09-13T15:49:49.299Z,25.933533
2018-09-13T15:51:23.505Z,25.711975
2018-09-13T15:52:57.558Z,25.863037
2018-09-13T15:54:13.624Z,25.913391
2018-09-13T15:55:47.725Z,25.933533
2018-09-13T15:57:21.780Z,25.681763
2018-09-13T15:58:37.862Z,25.621338
2018-09-13T15:59:54.007Z,25.621338
2018-09-13T16:01:28.943Z,25.409851
2018-09-13T16:03:02.973Z,25.39978
2018-09-13T16:04:37.182Z,25.299072
2018-09-13T16:06:12.808Z,25.299072
2018-09-13T16:07:28.883Z,25.359497
2018-09-13T16:09:02.961Z,25.389709
2018-09-13T16:10:19.096Z,25.289001
2018-09-13T16:11:35.183Z,25.218506
2018-09-13T16:13:09.225Z,25.208435
2018-09-13T16:14:43.456Z,25.137939
2018-09-13T16:16:35.301Z,24.966736
2018-09-13T16:17:51.798Z,24.845886
2018-09-13T16:19:44.752Z,24.916382
2018-09-13T16:21:18.781Z,24.916382
2018-09-13T16:22:34.773Z,24.876099
2018-09-13T16:24:08.824Z,24.775391
2018-09-13T16:27:05.262Z,25.007019
2018-09-13T16:55:24.134Z,24.664612
2018-09-13T16:56:40.255Z,24.402771
2018-09-13T16:57:56.306Z,24.503479
2018-09-13T16:59:30.397Z,24.614258
2018-09-13T17:01:23.460Z,24.584045
2018-09-13T17:02:39.613Z,24.654541
2018-09-13T17:04:13.554Z,24.584045
2018-09-13T17:05:47.654Z,24.584045
2018-09-13T17:07:21.548Z,24.533691
2018-09-13T17:09:13.356Z,24.322205
2018-09-13T17:10:48.637Z,24.372559
2018-09-13T17:12:22.659Z,24.553833
2018-09-13T17:13:57.699Z,24.443054
2018-09-13T17:15:13.899Z,24.382629
2018-09-13T17:16:30.049Z,24.312134